sensor_id;sensor_type;location;lat;lon;timestamp;P1;durP1;ratioP1;P2;durP2;ratioP2
75007;SDS011;63554;48.940;12.050;2022-10-19T00:03:18;6.22;;;3.20;;
75007;SDS011;63554;48.940;12.050;2022-10-19T00:08:23;6.40;;;3.40;;
75007;SDS011;63554;48.940;12.050;2022-10-19T00:13:26;16.08;;;3.88;;
75007;SDS011;63554;48.940;12.050;2022-10-19T00:18:30;46.28;;;4.55;;
75007;SDS011;63554;48.940;12.050;2022-10-19T00:23:33;6.28;;;2.83;;
75007;SDS011;63554;48.940;12.050;2022-10-19T00:28:37;7.05;;;3.00;;
75007;SDS011;63554;48.940;12.050;2022-10-19T00:33:43;3.72;;;2.83;;
75007;SDS011;63554;48.940;12.050;2022-10-19T00:38:47;3.30;;;2.45;;
75007;SDS011;63554;48.940;12.050;2022-10-19T00:43:55;6.32;;;2.72;;
75007;SDS011;63554;48.940;12.050;2022-10-19T00:49:03;4.53;;;2.95;;
75007;SDS011;63554;48.940;12.050;2022-10-19T00:54:11;2.53;;;2.25;;
75007;SDS011;63554;48.940;12.050;2022-10-19T00:59:15;3.13;;;2.00;;
75007;SDS011;63554;48.940;12.050;2022-10-19T01:04:23;3.25;;;2.15;;
75007;SDS011;63554;48.940;12.050;2022-10-19T01:09:28;3.08;;;2.28;;
75007;SDS011;63554;48.940;12.050;2022-10-19T01:14:33;4.18;;;2.75;;
75007;SDS011;63554;48.940;12.050;2022-10-19T01:20:02;5.72;;;2.53;;
75007;SDS011;63554;48.940;12.050;2022-10-19T01:25:27;2.95;;;2.05;;
75007;SDS011;63554;48.940;12.050;2022-10-19T01:30:43;4.38;;;2.88;;
75007;SDS011;63554;48.940;12.050;2022-10-19T01:35:56;5.53;;;2.58;;
75007;SDS011;63554;48.940;12.050;2022-10-19T01:41:10;4.43;;;2.33;;
75007;SDS011;63554;48.940;12.050;2022-10-19T01:46:20;4.20;;;2.63;;
75007;SDS011;63554;48.940;12.050;2022-10-19T01:51:27;3.53;;;2.55;;
75007;SDS011;63554;48.940;12.050;2022-10-19T01:56:33;4.50;;;2.83;;
75007;SDS011;63554;48.940;12.050;2022-10-19T02:01:40;4.28;;;2.60;;
75007;SDS011;63554;48.940;12.050;2022-10-19T02:06:46;4.20;;;2.78;;
75007;SDS011;63554;48.940;12.050;2022-10-19T02:11:49;4.63;;;3.22;;
75007;SDS011;63554;48.940;12.050;2022-10-19T02:17:00;7.88;;;3.25;;
75007;SDS011;63554;48.940;12.050;2022-10-19T02:27:09;9.20;;;3.80;;
75007;SDS011;63554;48.940;12.050;2022-10-19T02:32:14;6.22;;;3.53;;
75007;SDS011;63554;48.940;12.050;2022-10-19T02:37:17;6.25;;;3.55;;
75007;SDS011;63554;48.940;12.050;2022-10-19T02:42:26;9.77;;;3.58;;
75007;SDS011;63554;48.940;12.050;2022-10-19T02:47:34;6.15;;;3.70;;
75007;SDS011;63554;48.940;12.050;2022-10-19T02:52:38;8.65;;;3.95;;
75007;SDS011;63554;48.940;12.050;2022-10-19T02:57:42;7.50;;;3.92;;
75007;SDS011;63554;48.940;12.050;2022-10-19T03:02:46;7.13;;;3.80;;
75007;SDS011;63554;48.940;12.050;2022-10-19T03:07:49;9.38;;;4.80;;
75007;SDS011;63554;48.940;12.050;2022-10-19T03:12:52;7.53;;;3.30;;
75007;SDS011;63554;48.940;12.050;2022-10-19T03:17:59;13.90;;;4.15;;
75007;SDS011;63554;48.940;12.050;2022-10-19T03:23:02;12.50;;;5.40;;
75007;SDS011;63554;48.940;12.050;2022-10-19T03:28:05;7.50;;;4.18;;
75007;SDS011;63554;48.940;12.050;2022-10-19T03:33:09;8.65;;;4.20;;
75007;SDS011;63554;48.940;12.050;2022-10-19T03:38:12;11.02;;;4.55;;
75007;SDS011;63554;48.940;12.050;2022-10-19T03:43:15;8.93;;;4.97;;
75007;SDS011;63554;48.940;12.050;2022-10-19T03:48:20;10.55;;;3.97;;
75007;SDS011;63554;48.940;12.050;2022-10-19T03:53:23;8.48;;;4.18;;
75007;SDS011;63554;48.940;12.050;2022-10-19T03:58:26;7.95;;;3.55;;
75007;SDS011;63554;48.940;12.050;2022-10-19T04:03:30;7.78;;;4.60;;
75007;SDS011;63554;48.940;12.050;2022-10-19T04:08:33;7.40;;;3.72;;
75007;SDS011;63554;48.940;12.050;2022-10-19T04:13:37;9.60;;;5.18;;
75007;SDS011;63554;48.940;12.050;2022-10-19T04:18:41;8.95;;;3.70;;
75007;SDS011;63554;48.940;12.050;2022-10-19T04:23:44;8.05;;;4.32;;
75007;SDS011;63554;48.940;12.050;2022-10-19T04:28:47;6.43;;;3.40;;
75007;SDS011;63554;48.940;12.050;2022-10-19T04:33:52;10.57;;;4.85;;
75007;SDS011;63554;48.940;12.050;2022-10-19T04:38:55;23.83;;;4.32;;
75007;SDS011;63554;48.940;12.050;2022-10-19T04:43:59;6.50;;;3.65;;
75007;SDS011;63554;48.940;12.050;2022-10-19T04:49:04;15.20;;;4.22;;
75007;SDS011;63554;48.940;12.050;2022-10-19T04:54:07;7.75;;;4.15;;
75007;SDS011;63554;48.940;12.050;2022-10-19T04:59:10;12.45;;;3.65;;
75007;SDS011;63554;48.940;12.050;2022-10-19T05:04:15;10.68;;;2.90;;
75007;SDS011;63554;48.940;12.050;2022-10-19T05:09:19;11.98;;;3.28;;
75007;SDS011;63554;48.940;12.050;2022-10-19T05:14:22;9.15;;;3.20;;
75007;SDS011;63554;48.940;12.050;2022-10-19T05:19:27;10.85;;;3.35;;
75007;SDS011;63554;48.940;12.050;2022-10-19T05:24:30;15.57;;;3.10;;
75007;SDS011;63554;48.940;12.050;2022-10-19T05:29:33;43.95;;;3.90;;
75007;SDS011;63554;48.940;12.050;2022-10-19T05:34:37;14.07;;;3.35;;
75007;SDS011;63554;48.940;12.050;2022-10-19T05:39:40;15.75;;;3.22;;
75007;SDS011;63554;48.940;12.050;2022-10-19T05:44:43;17.65;;;4.30;;
75007;SDS011;63554;48.940;12.050;2022-10-19T05:49:48;50.40;;;4.80;;
75007;SDS011;63554;48.940;12.050;2022-10-19T05:54:51;48.35;;;4.63;;
75007;SDS011;63554;48.940;12.050;2022-10-19T05:59:54;34.28;;;4.13;;
75007;SDS011;63554;48.940;12.050;2022-10-19T06:05:00;24.17;;;3.88;;
75007;SDS011;63554;48.940;12.050;2022-10-19T06:10:03;5.55;;;3.60;;
75007;SDS011;63554;48.940;12.050;2022-10-19T06:15:07;5.70;;;2.90;;
75007;SDS011;63554;48.940;12.050;2022-10-19T06:20:11;15.88;;;3.63;;
75007;SDS011;63554;48.940;12.050;2022-10-19T06:25:14;26.67;;;3.63;;
75007;SDS011;63554;48.940;12.050;2022-10-19T06:30:20;7.82;;;2.72;;
75007;SDS011;63554;48.940;12.050;2022-10-19T06:35:25;13.52;;;3.33;;
75007;SDS011;63554;48.940;12.050;2022-10-19T06:40:28;9.85;;;3.70;;
75007;SDS011;63554;48.940;12.050;2022-10-19T06:45:31;6.45;;;3.22;;
75007;SDS011;63554;48.940;12.050;2022-10-19T06:50:37;8.05;;;2.95;;
75007;SDS011;63554;48.940;12.050;2022-10-19T06:55:40;6.70;;;3.10;;
75007;SDS011;63554;48.940;12.050;2022-10-19T07:00:43;6.75;;;3.58;;
75007;SDS011;63554;48.940;12.050;2022-10-19T07:05:52;7.15;;;4.15;;
75007;SDS011;63554;48.940;12.050;2022-10-19T07:10:56;28.98;;;13.15;;
75007;SDS011;63554;48.940;12.050;2022-10-19T07:16:01;10.55;;;4.32;;
75007;SDS011;63554;48.940;12.050;2022-10-19T07:21:08;7.72;;;3.88;;
75007;SDS011;63554;48.940;12.050;2022-10-19T07:26:13;8.05;;;3.85;;
75007;SDS011;63554;48.940;12.050;2022-10-19T07:31:20;7.28;;;4.07;;
75007;SDS011;63554;48.940;12.050;2022-10-19T07:36:26;7.20;;;3.47;;
75007;SDS011;63554;48.940;12.050;2022-10-19T07:41:30;5.80;;;3.10;;
75007;SDS011;63554;48.940;12.050;2022-10-19T07:46:34;7.45;;;3.80;;
75007;SDS011;63554;48.940;12.050;2022-10-19T07:51:40;7.35;;;3.75;;
75007;SDS011;63554;48.940;12.050;2022-10-19T07:56:43;8.82;;;3.35;;
75007;SDS011;63554;48.940;12.050;2022-10-19T08:01:46;7.05;;;3.40;;
75007;SDS011;63554;48.940;12.050;2022-10-19T08:06:51;6.97;;;3.05;;
75007;SDS011;63554;48.940;12.050;2022-10-19T08:11:54;6.90;;;4.05;;
75007;SDS011;63554;48.940;12.050;2022-10-19T08:16:58;5.25;;;3.13;;
75007;SDS011;63554;48.940;12.050;2022-10-19T08:22:03;6.25;;;3.20;;
75007;SDS011;63554;48.940;12.050;2022-10-19T08:27:06;10.88;;;3.53;;
75007;SDS011;63554;48.940;12.050;2022-10-19T08:32:09;6.32;;;3.17;;
75007;SDS011;63554;48.940;12.050;2022-10-19T08:37:14;6.80;;;3.45;;
75007;SDS011;63554;48.940;12.050;2022-10-19T08:42:43;6.53;;;3.22;;
75007;SDS011;63554;48.940;12.050;2022-10-19T08:47:57;7.10;;;3.85;;
75007;SDS011;63554;48.940;12.050;2022-10-19T08:53:07;8.27;;;3.83;;
75007;SDS011;63554;48.940;12.050;2022-10-19T08:58:19;7.43;;;3.53;;
75007;SDS011;63554;48.940;12.050;2022-10-19T09:03:34;7.65;;;3.95;;
75007;SDS011;63554;48.940;12.050;2022-10-19T09:08:57;7.28;;;3.78;;
75007;SDS011;63554;48.940;12.050;2022-10-19T09:14:02;6.32;;;3.40;;
75007;SDS011;63554;48.940;12.050;2022-10-19T09:19:10;7.13;;;3.50;;
75007;SDS011;63554;48.940;12.050;2022-10-19T09:24:24;6.90;;;3.22;;
75007;SDS011;63554;48.940;12.050;2022-10-19T09:29:34;6.50;;;3.55;;
75007;SDS011;63554;48.940;12.050;2022-10-19T09:34:40;6.05;;;3.50;;
75007;SDS011;63554;48.940;12.050;2022-10-19T09:39:47;6.15;;;3.80;;
75007;SDS011;63554;48.940;12.050;2022-10-19T09:44:55;7.22;;;3.50;;
75007;SDS011;63554;48.940;12.050;2022-10-19T09:50:08;9.45;;;3.47;;
75007;SDS011;63554;48.940;12.050;2022-10-19T09:55:22;7.15;;;2.40;;
75007;SDS011;63554;48.940;12.050;2022-10-19T10:00:33;5.78;;;2.83;;
75007;SDS011;63554;48.940;12.050;2022-10-19T10:05:38;6.43;;;2.88;;
75007;SDS011;63554;48.940;12.050;2022-10-19T10:10:44;6.18;;;3.00;;
75007;SDS011;63554;48.940;12.050;2022-10-19T10:15:50;5.65;;;2.95;;
75007;SDS011;63554;48.940;12.050;2022-10-19T10:21:01;5.10;;;2.70;;
75007;SDS011;63554;48.940;12.050;2022-10-19T10:26:16;3.38;;;2.05;;
75007;SDS011;63554;48.940;12.050;2022-10-19T10:31:21;4.00;;;2.25;;
75007;SDS011;63554;48.940;12.050;2022-10-19T10:36:28;7.82;;;2.42;;
75007;SDS011;63554;48.940;12.050;2022-10-19T10:41:36;5.18;;;2.90;;
75007;SDS011;63554;48.940;12.050;2022-10-19T10:46:42;6.75;;;3.40;;
75007;SDS011;63554;48.940;12.050;2022-10-19T10:51:52;7.03;;;3.40;;
75007;SDS011;63554;48.940;12.050;2022-10-19T10:57:09;4.78;;;2.85;;
75007;SDS011;63554;48.940;12.050;2022-10-19T11:02:17;6.20;;;3.35;;
75007;SDS011;63554;48.940;12.050;2022-10-19T11:07:29;4.35;;;3.10;;
75007;SDS011;63554;48.940;12.050;2022-10-19T11:12:38;5.00;;;2.65;;
75007;SDS011;63554;48.940;12.050;2022-10-19T11:17:57;4.28;;;2.75;;
75007;SDS011;63554;48.940;12.050;2022-10-19T11:23:17;5.15;;;2.40;;
75007;SDS011;63554;48.940;12.050;2022-10-19T11:28:33;4.35;;;2.13;;
75007;SDS011;63554;48.940;12.050;2022-10-19T11:33:52;3.70;;;2.05;;
75007;SDS011;63554;48.940;12.050;2022-10-19T11:39:01;4.00;;;2.47;;
75007;SDS011;63554;48.940;12.050;2022-10-19T11:44:24;3.53;;;2.17;;
75007;SDS011;63554;48.940;12.050;2022-10-19T11:49:38;4.35;;;1.83;;
75007;SDS011;63554;48.940;12.050;2022-10-19T11:54:54;3.50;;;2.05;;
75007;SDS011;63554;48.940;12.050;2022-10-19T12:00:08;3.53;;;2.13;;
75007;SDS011;63554;48.940;12.050;2022-10-19T12:05:27;3.95;;;2.35;;
75007;SDS011;63554;48.940;12.050;2022-10-19T12:15:43;3.08;;;1.88;;
75007;SDS011;63554;48.940;12.050;2022-10-19T12:20:49;3.72;;;2.20;;
75007;SDS011;63554;48.940;12.050;2022-10-19T12:25:55;5.82;;;3.42;;
75007;SDS011;63554;48.940;12.050;2022-10-19T12:31:01;4.00;;;2.00;;
75007;SDS011;63554;48.940;12.050;2022-10-19T12:36:11;3.33;;;2.00;;
75007;SDS011;63554;48.940;12.050;2022-10-19T12:41:24;4.70;;;2.35;;
75007;SDS011;63554;48.940;12.050;2022-10-19T12:46:36;2.55;;;1.83;;
75007;SDS011;63554;48.940;12.050;2022-10-19T12:51:43;4.50;;;2.40;;
75007;SDS011;63554;48.940;12.050;2022-10-19T12:56:47;3.47;;;2.03;;
75007;SDS011;63554;48.940;12.050;2022-10-19T13:01:55;2.45;;;1.65;;
75007;SDS011;63554;48.940;12.050;2022-10-19T13:06:59;3.38;;;1.83;;
75007;SDS011;63554;48.940;12.050;2022-10-19T13:17:45;6.07;;;1.73;;
75007;SDS011;63554;48.940;12.050;2022-10-19T13:23:33;3.63;;;1.77;;
75007;SDS011;63554;48.940;12.050;2022-10-19T13:28:37;3.50;;;1.92;;
75007;SDS011;63554;48.940;12.050;2022-10-19T13:33:44;3.60;;;1.88;;
75007;SDS011;63554;48.940;12.050;2022-10-19T13:39:00;2.50;;;1.65;;
75007;SDS011;63554;48.940;12.050;2022-10-19T13:44:17;2.95;;;2.00;;
75007;SDS011;63554;48.940;12.050;2022-10-19T13:55:07;2.92;;;1.77;;
75007;SDS011;63554;48.940;12.050;2022-10-19T14:00:26;3.40;;;2.05;;
75007;SDS011;63554;48.940;12.050;2022-10-19T14:05:44;3.10;;;1.70;;
75007;SDS011;63554;48.940;12.050;2022-10-19T14:10:57;4.18;;;1.98;;
75007;SDS011;63554;48.940;12.050;2022-10-19T14:16:05;4.60;;;2.33;;
75007;SDS011;63554;48.940;12.050;2022-10-19T14:21:10;3.20;;;1.67;;
75007;SDS011;63554;48.940;12.050;2022-10-19T14:26:14;2.30;;;1.38;;
75007;SDS011;63554;48.940;12.050;2022-10-19T14:31:27;3.42;;;1.60;;
75007;SDS011;63554;48.940;12.050;2022-10-19T14:36:35;4.20;;;2.10;;
75007;SDS011;63554;48.940;12.050;2022-10-19T14:41:40;3.72;;;1.70;;
75007;SDS011;63554;48.940;12.050;2022-10-19T14:46:47;2.60;;;1.65;;
75007;SDS011;63554;48.940;12.050;2022-10-19T14:51:50;5.30;;;2.35;;
75007;SDS011;63554;48.940;12.050;2022-10-19T14:56:58;3.15;;;1.90;;
75007;SDS011;63554;48.940;12.050;2022-10-19T15:02:09;3.13;;;2.20;;
75007;SDS011;63554;48.940;12.050;2022-10-19T15:07:19;3.60;;;1.85;;
75007;SDS011;63554;48.940;12.050;2022-10-19T15:12:26;3.35;;;1.98;;
75007;SDS011;63554;48.940;12.050;2022-10-19T15:17:34;6.30;;;2.50;;
75007;SDS011;63554;48.940;12.050;2022-10-19T15:22:47;2.40;;;1.67;;
75007;SDS011;63554;48.940;12.050;2022-10-19T15:27:51;4.57;;;2.00;;
75007;SDS011;63554;48.940;12.050;2022-10-19T15:33:06;2.55;;;1.60;;
75007;SDS011;63554;48.940;12.050;2022-10-19T15:38:16;4.55;;;1.85;;
75007;SDS011;63554;48.940;12.050;2022-10-19T15:43:33;4.03;;;1.90;;
75007;SDS011;63554;48.940;12.050;2022-10-19T15:48:45;4.75;;;1.67;;
75007;SDS011;63554;48.940;12.050;2022-10-19T15:53:55;7.57;;;3.60;;
75007;SDS011;63554;48.940;12.050;2022-10-19T15:59:00;3.67;;;1.70;;
75007;SDS011;63554;48.940;12.050;2022-10-19T16:04:06;3.50;;;1.88;;
75007;SDS011;63554;48.940;12.050;2022-10-19T16:09:15;2.90;;;1.73;;
75007;SDS011;63554;48.940;12.050;2022-10-19T16:14:20;2.78;;;1.73;;
75007;SDS011;63554;48.940;12.050;2022-10-19T16:19:25;5.93;;;1.50;;
75007;SDS011;63554;48.940;12.050;2022-10-19T16:24:28;2.67;;;1.70;;
75007;SDS011;63554;48.940;12.050;2022-10-19T16:29:31;2.60;;;1.75;;
75007;SDS011;63554;48.940;12.050;2022-10-19T16:34:35;4.22;;;2.03;;
75007;SDS011;63554;48.940;12.050;2022-10-19T16:39:38;3.53;;;1.80;;
75007;SDS011;63554;48.940;12.050;2022-10-19T16:44:41;5.68;;;2.00;;
75007;SDS011;63554;48.940;12.050;2022-10-19T16:49:46;3.55;;;2.10;;
75007;SDS011;63554;48.940;12.050;2022-10-19T16:54:49;2.58;;;1.73;;
75007;SDS011;63554;48.940;12.050;2022-10-19T16:59:52;4.03;;;2.08;;
75007;SDS011;63554;48.940;12.050;2022-10-19T17:04:57;4.78;;;2.75;;
75007;SDS011;63554;48.940;12.050;2022-10-19T17:10:00;3.45;;;2.08;;
75007;SDS011;63554;48.940;12.050;2022-10-19T17:15:03;5.47;;;2.15;;
75007;SDS011;63554;48.940;12.050;2022-10-19T17:20:28;5.30;;;2.38;;
75007;SDS011;63554;48.940;12.050;2022-10-19T17:25:33;4.88;;;2.67;;
75007;SDS011;63554;48.940;12.050;2022-10-19T17:30:39;7.20;;;3.75;;
75007;SDS011;63554;48.940;12.050;2022-10-19T17:35:43;6.80;;;3.58;;
75007;SDS011;63554;48.940;12.050;2022-10-19T17:40:47;3.85;;;2.42;;
75007;SDS011;63554;48.940;12.050;2022-10-19T17:45:55;6.25;;;3.40;;
75007;SDS011;63554;48.940;12.050;2022-10-19T17:51:01;5.53;;;3.20;;
75007;SDS011;63554;48.940;12.050;2022-10-19T17:56:06;6.10;;;2.90;;
75007;SDS011;63554;48.940;12.050;2022-10-19T18:01:10;5.10;;;2.90;;
75007;SDS011;63554;48.940;12.050;2022-10-19T18:06:16;4.95;;;3.15;;
75007;SDS011;63554;48.940;12.050;2022-10-19T18:11:21;6.10;;;3.70;;
75007;SDS011;63554;48.940;12.050;2022-10-19T18:16:26;6.97;;;3.47;;
75007;SDS011;63554;48.940;12.050;2022-10-19T18:21:33;4.95;;;3.25;;
75007;SDS011;63554;48.940;12.050;2022-10-19T18:26:38;5.03;;;3.35;;
75007;SDS011;63554;48.940;12.050;2022-10-19T18:31:42;6.15;;;3.28;;
75007;SDS011;63554;48.940;12.050;2022-10-19T18:36:46;9.90;;;3.53;;
75007;SDS011;63554;48.940;12.050;2022-10-19T18:41:50;7.35;;;3.67;;
75007;SDS011;63554;48.940;12.050;2022-10-19T18:46:55;5.03;;;3.30;;
75007;SDS011;63554;48.940;12.050;2022-10-19T18:51:59;6.57;;;3.63;;
75007;SDS011;63554;48.940;12.050;2022-10-19T18:57:02;7.63;;;3.85;;
75007;SDS011;63554;48.940;12.050;2022-10-19T19:02:05;7.07;;;3.65;;
75007;SDS011;63554;48.940;12.050;2022-10-19T19:07:24;6.93;;;3.85;;
75007;SDS011;63554;48.940;12.050;2022-10-19T19:12:27;8.63;;;3.70;;
75007;SDS011;63554;48.940;12.050;2022-10-19T19:17:31;8.25;;;4.70;;
75007;SDS011;63554;48.940;12.050;2022-10-19T19:22:35;9.43;;;5.13;;
75007;SDS011;63554;48.940;12.050;2022-10-19T19:27:38;8.90;;;4.28;;
75007;SDS011;63554;48.940;12.050;2022-10-19T19:32:41;5.90;;;4.10;;
75007;SDS011;63554;48.940;12.050;2022-10-19T19:37:46;7.68;;;4.10;;
75007;SDS011;63554;48.940;12.050;2022-10-19T19:42:49;7.20;;;4.07;;
75007;SDS011;63554;48.940;12.050;2022-10-19T19:47:52;5.40;;;3.33;;
75007;SDS011;63554;48.940;12.050;2022-10-19T19:57:59;7.97;;;4.57;;
75007;SDS011;63554;48.940;12.050;2022-10-19T20:03:02;9.57;;;4.68;;
75007;SDS011;63554;48.940;12.050;2022-10-19T20:08:07;9.10;;;4.40;;
75007;SDS011;63554;48.940;12.050;2022-10-19T20:13:10;5.80;;;3.85;;
75007;SDS011;63554;48.940;12.050;2022-10-19T20:18:13;7.35;;;3.88;;
75007;SDS011;63554;48.940;12.050;2022-10-19T20:28:20;8.43;;;4.32;;
75007;SDS011;63554;48.940;12.050;2022-10-19T20:33:23;7.97;;;4.50;;
75007;SDS011;63554;48.940;12.050;2022-10-19T20:38:27;13.85;;;4.88;;
75007;SDS011;63554;48.940;12.050;2022-10-19T20:43:30;5.95;;;3.70;;
75007;SDS011;63554;48.940;12.050;2022-10-19T20:48:34;6.97;;;4.22;;
75007;SDS011;63554;48.940;12.050;2022-10-19T20:58:41;5.03;;;3.42;;
75007;SDS011;63554;48.940;12.050;2022-10-19T21:03:46;6.65;;;4.95;;
75007;SDS011;63554;48.940;12.050;2022-10-19T21:08:52;9.68;;;3.95;;
75007;SDS011;63554;48.940;12.050;2022-10-19T21:13:56;7.32;;;4.05;;
75007;SDS011;63554;48.940;12.050;2022-10-19T21:19:00;7.75;;;4.53;;
75007;SDS011;63554;48.940;12.050;2022-10-19T21:24:06;8.60;;;3.67;;
75007;SDS011;63554;48.940;12.050;2022-10-19T21:29:12;7.72;;;5.00;;
75007;SDS011;63554;48.940;12.050;2022-10-19T21:34:17;8.00;;;4.15;;
75007;SDS011;63554;48.940;12.050;2022-10-19T21:39:22;7.95;;;4.05;;
75007;SDS011;63554;48.940;12.050;2022-10-19T21:44:26;7.75;;;4.05;;
75007;SDS011;63554;48.940;12.050;2022-10-19T21:49:28;6.53;;;4.43;;
75007;SDS011;63554;48.940;12.050;2022-10-19T21:54:33;4.90;;;3.55;;
75007;SDS011;63554;48.940;12.050;2022-10-19T21:59:36;6.03;;;4.00;;
75007;SDS011;63554;48.940;12.050;2022-10-19T22:04:39;6.45;;;3.80;;
75007;SDS011;63554;48.940;12.050;2022-10-19T22:09:43;6.40;;;3.70;;
75007;SDS011;63554;48.940;12.050;2022-10-19T22:14:46;5.32;;;3.45;;
75007;SDS011;63554;48.940;12.050;2022-10-19T22:19:49;6.25;;;4.13;;
75007;SDS011;63554;48.940;12.050;2022-10-19T22:24:54;8.05;;;4.03;;
75007;SDS011;63554;48.940;12.050;2022-10-19T22:29:57;6.50;;;3.83;;
75007;SDS011;63554;48.940;12.050;2022-10-19T22:35:00;10.23;;;3.97;;
75007;SDS011;63554;48.940;12.050;2022-10-19T22:40:04;8.23;;;4.10;;
75007;SDS011;63554;48.940;12.050;2022-10-19T22:45:08;9.75;;;4.57;;
75007;SDS011;63554;48.940;12.050;2022-10-19T22:50:11;10.02;;;5.03;;
75007;SDS011;63554;48.940;12.050;2022-10-19T22:55:15;6.28;;;4.13;;
75007;SDS011;63554;48.940;12.050;2022-10-19T23:00:18;7.25;;;4.38;;
75007;SDS011;63554;48.940;12.050;2022-10-19T23:05:21;6.82;;;4.25;;
75007;SDS011;63554;48.940;12.050;2022-10-19T23:10:26;5.75;;;4.07;;
75007;SDS011;63554;48.940;12.050;2022-10-19T23:15:29;4.65;;;3.10;;
75007;SDS011;63554;48.940;12.050;2022-10-19T23:20:32;7.60;;;4.13;;
75007;SDS011;63554;48.940;12.050;2022-10-19T23:25:36;6.90;;;3.85;;
75007;SDS011;63554;48.940;12.050;2022-10-19T23:30:39;7.00;;;3.67;;
75007;SDS011;63554;48.940;12.050;2022-10-19T23:35:42;8.35;;;3.13;;
75007;SDS011;63554;48.940;12.050;2022-10-19T23:40:46;4.68;;;3.83;;
75007;SDS011;63554;48.940;12.050;2022-10-19T23:45:49;4.50;;;3.22;;
75007;SDS011;63554;48.940;12.050;2022-10-19T23:50:56;7.47;;;3.95;;
75007;SDS011;63554;48.940;12.050;2022-10-19T23:56:02;8.05;;;4.45;;
